createdAt,value
2022-10-23T00:01:41.524Z,5.40
2022-10-23T00:04:16.994Z,5.72
2022-10-23T00:06:44.381Z,6.18
2022-10-23T00:09:13.327Z,6.60
2022-10-23T00:11:41.378Z,7.03
2022-10-23T00:14:09.090Z,6.68
2022-10-23T00:16:36.287Z,6.85
2022-10-23T00:19:03.750Z,6.68
2022-10-23T00:21:30.422Z,6.85
2022-10-23T00:23:57.372Z,6.35
2022-10-23T00:26:24.174Z,6.57
2022-10-23T00:28:57.191Z,6.63
2022-10-23T00:31:25.270Z,6.35
2022-10-23T00:33:52.515Z,6.95
2022-10-23T00:36:21.220Z,6.70
2022-10-23T00:38:49.196Z,7.45
2022-10-23T00:41:28.475Z,6.95
2022-10-23T00:44:24.312Z,7.35
2022-10-23T00:46:50.951Z,7.78
2022-10-23T00:49:17.485Z,7.43
2022-10-23T00:51:51.843Z,7.53
2022-10-23T00:54:24.377Z,7.80
2022-10-23T00:56:54.672Z,6.68
2022-10-23T00:59:21.216Z,6.90
2022-10-23T01:01:48.357Z,7.70
2022-10-23T01:04:15.188Z,7.65
2022-10-23T01:06:46.603Z,7.95
2022-10-23T01:09:28.089Z,7.35
2022-10-23T01:12:24.247Z,7.05
2022-10-23T01:15:07.844Z,7.20
2022-10-23T01:17:45.552Z,7.13
2022-10-23T01:20:33.019Z,6.57
2022-10-23T01:23:21.458Z,7.07
2022-10-23T01:26:07.889Z,6.72
2022-10-23T01:28:59.292Z,7.35
2022-10-23T01:31:42.462Z,7.15
2022-10-23T01:34:23.620Z,6.50
2022-10-23T01:36:53.604Z,7.22
2022-10-23T01:39:35.719Z,6.65
2022-10-23T01:42:15.209Z,6.95
2022-10-23T01:44:51.539Z,6.95
2022-10-23T01:47:25.652Z,7.50
2022-10-23T01:49:53.592Z,7.28
2022-10-23T01:52:21.047Z,7.50
2022-10-23T01:54:50.752Z,7.78
2022-10-23T01:57:20.392Z,7.13
2022-10-23T01:59:53.453Z,8.50
2022-10-23T02:02:22.466Z,8.30
2022-10-23T02:04:57.076Z,7.57
2022-10-23T02:07:24.340Z,7.53
2022-10-23T02:09:50.959Z,8.43
2022-10-23T02:13:13.887Z,7.43
2022-10-23T02:16:18.780Z,7.65
2022-10-23T02:19:29.814Z,8.35
2022-10-23T02:22:07.563Z,8.77
2022-10-23T02:25:08.359Z,8.52
2022-10-23T02:27:58.319Z,8.18
2022-10-23T02:30:25.065Z,7.78
2022-10-23T02:32:55.252Z,7.72
2022-10-23T02:35:24.768Z,7.97
2022-10-23T02:37:59.877Z,7.80
2022-10-23T02:40:41.084Z,8.15
2022-10-23T02:43:36.707Z,8.05
2022-10-23T02:46:30.601Z,8.07
2022-10-23T02:49:16.743Z,7.22
2022-10-23T02:52:28.191Z,7.55
2022-10-23T02:55:29.022Z,8.05
2022-10-23T02:58:27.448Z,8.68
2022-10-23T03:01:09.590Z,8.82
2022-10-23T03:03:45.715Z,8.48
2022-10-23T03:06:13.118Z,8.30
2022-10-23T03:09:03.994Z,8.70
2022-10-23T03:11:30.631Z,8.13
2022-10-23T03:13:57.388Z,7.88
2022-10-23T03:16:24.395Z,7.53
2022-10-23T03:18:51.036Z,7.88
2022-10-23T03:21:17.612Z,8.10
2022-10-23T03:23:44.146Z,7.95
2022-10-23T03:26:10.685Z,7.70
2022-10-23T03:28:37.234Z,6.80
2022-10-23T03:31:04.514Z,7.35
2022-10-23T03:33:32.406Z,6.80
2022-10-23T03:35:58.937Z,7.50
2022-10-23T03:38:25.489Z,6.72
2022-10-23T03:40:52.159Z,7.57
2022-10-23T03:43:18.699Z,7.57
2022-10-23T03:45:45.214Z,7.10
2022-10-23T03:48:11.773Z,7.63
2022-10-23T03:50:38.286Z,6.65
2022-10-23T03:53:04.799Z,6.57
2022-10-23T03:55:31.640Z,7.35
2022-10-23T03:57:58.198Z,7.65
2022-10-23T04:00:24.811Z,6.15
2022-10-23T04:02:51.377Z,7.60
2022-10-23T04:05:18.029Z,7.22
2022-10-23T04:07:44.549Z,7.65
2022-10-23T04:10:11.110Z,7.63
2022-10-23T04:12:37.659Z,8.00
2022-10-23T04:15:04.785Z,7.90
2022-10-23T04:17:31.443Z,7.68
2022-10-23T04:19:57.972Z,8.27
2022-10-23T04:22:27.477Z,8.55
2022-10-23T04:24:55.381Z,8.13
2022-10-23T04:27:21.983Z,7.32
2022-10-23T04:29:49.258Z,7.45
2022-10-23T04:32:15.994Z,7.90
2022-10-23T04:34:42.579Z,8.57
2022-10-23T04:37:09.099Z,7.90
2022-10-23T04:39:35.634Z,8.70
2022-10-23T04:42:02.216Z,8.60
2022-10-23T04:44:28.739Z,8.57
2022-10-23T04:46:55.376Z,8.80
2022-10-23T04:49:21.974Z,7.68
2022-10-23T04:51:48.512Z,8.13
2022-10-23T04:54:15.070Z,8.90
2022-10-23T04:56:41.633Z,8.82
2022-10-23T04:59:08.254Z,8.32
2022-10-23T05:01:35.014Z,7.72
2022-10-23T05:04:01.684Z,7.65
2022-10-23T05:06:28.203Z,7.75
2022-10-23T05:08:54.896Z,7.55
2022-10-23T05:11:21.795Z,8.40
2022-10-23T05:13:48.331Z,7.60
2022-10-23T05:16:42.172Z,7.78
2022-10-23T05:19:12.535Z,7.80
2022-10-23T05:21:40.293Z,7.88
2022-10-23T05:24:07.091Z,7.18
2022-10-23T05:26:33.605Z,8.38
2022-10-23T05:29:00.125Z,8.10
2022-10-23T05:31:26.712Z,7.38
2022-10-23T05:33:56.199Z,7.28
2022-10-23T05:36:25.446Z,7.80
2022-10-23T05:38:52.611Z,7.35
2022-10-23T05:41:21.517Z,7.88
2022-10-23T05:43:48.082Z,9.20
2022-10-23T05:46:14.681Z,8.43
2022-10-23T05:48:41.212Z,7.60
2022-10-23T05:51:10.632Z,8.15
2022-10-23T05:53:40.139Z,8.48
2022-10-23T05:56:09.412Z,9.02
2022-10-23T05:58:36.334Z,9.98
2022-10-23T06:01:08.900Z,9.55
2022-10-23T06:03:36.725Z,8.32
2022-10-23T06:06:04.255Z,8.00
2022-10-23T06:08:35.074Z,7.10
2022-10-23T06:11:28.544Z,7.10
2022-10-23T06:13:55.103Z,7.05
2022-10-23T06:16:27.376Z,6.00
2022-10-23T06:18:55.060Z,5.90
2022-10-23T06:21:21.884Z,6.13
2022-10-23T06:23:48.438Z,6.50
2022-10-23T06:26:17.846Z,6.88
2022-10-23T06:28:47.079Z,6.32
2022-10-23T06:31:16.639Z,8.07
2022-10-23T06:33:43.233Z,6.20
2022-10-23T06:36:10.662Z,5.70
2022-10-23T06:38:40.337Z,5.65
2022-10-23T06:41:17.231Z,6.03
2022-10-23T06:43:43.883Z,8.02
2022-10-23T06:46:10.909Z,10.10
2022-10-23T06:48:37.460Z,6.10
2022-10-23T06:51:07.979Z,6.88
2022-10-23T06:53:38.522Z,6.93
2022-10-23T06:56:07.978Z,7.90
2022-10-23T06:58:38.905Z,7.20
2022-10-23T07:01:11.350Z,6.90
2022-10-23T07:03:37.962Z,7.45
2022-10-23T07:06:07.666Z,7.28
2022-10-23T07:08:34.359Z,7.32
2022-10-23T07:11:10.404Z,6.28
2022-10-23T07:13:38.609Z,7.38
2022-10-23T07:16:20.455Z,7.20
2022-10-23T07:18:48.161Z,7.05
2022-10-23T07:21:14.743Z,7.68
2022-10-23T07:23:41.513Z,7.03
2022-10-23T07:26:16.856Z,7.15
2022-10-23T07:28:46.314Z,6.88
2022-10-23T07:31:13.452Z,7.30
2022-10-23T07:33:40.087Z,6.95
2022-10-23T07:36:08.915Z,6.50
2022-10-23T07:38:35.864Z,6.90
2022-10-23T07:41:02.898Z,6.85
2022-10-23T07:43:29.629Z,6.50
2022-10-23T07:45:56.625Z,6.57
2022-10-23T07:48:24.015Z,7.18
2022-10-23T07:50:51.288Z,6.28
2022-10-23T07:53:25.107Z,7.10
2022-10-23T07:55:57.924Z,6.80
2022-10-23T07:58:25.452Z,6.32
2022-10-23T08:01:03.497Z,9.68
2022-10-23T08:03:33.169Z,9.02
2022-10-23T08:06:00.524Z,7.75
2022-10-23T08:08:27.480Z,7.68
2022-10-23T08:10:55.304Z,9.57
2022-10-23T08:13:22.904Z,8.93
2022-10-23T08:15:51.407Z,7.35
2022-10-23T08:18:18.218Z,8.40
2022-10-23T08:20:48.170Z,7.35
2022-10-23T08:23:18.426Z,6.53
2022-10-23T08:25:46.279Z,6.40
2022-10-23T08:28:12.857Z,6.10
2022-10-23T08:30:39.427Z,6.00
2022-10-23T08:33:07.007Z,5.50
2022-10-23T08:35:37.853Z,5.05
2022-10-23T08:38:05.985Z,5.60
2022-10-23T08:40:34.865Z,6.00
2022-10-23T08:43:24.627Z,6.78
2022-10-23T08:46:01.274Z,7.57
2022-10-23T08:48:38.496Z,7.38
2022-10-23T08:51:13.910Z,8.05
2022-10-23T08:53:54.359Z,5.63
2022-10-23T08:56:31.887Z,5.97
2022-10-23T08:59:20.375Z,5.82
2022-10-23T09:01:55.670Z,6.63
2022-10-23T09:04:22.400Z,5.05
2022-10-23T09:07:03.727Z,5.22
2022-10-23T09:10:02.696Z,4.68
2022-10-23T09:12:30.819Z,5.07
2022-10-23T09:15:05.537Z,4.72
2022-10-23T09:17:35.754Z,5.55
2022-10-23T09:20:25.175Z,4.80
2022-10-23T09:23:04.596Z,4.65
2022-10-23T09:25:38.747Z,4.07
2022-10-23T09:28:05.976Z,3.92
2022-10-23T09:30:39.933Z,2.92
2022-10-23T09:33:26.052Z,2.58
2022-10-23T09:36:01.146Z,2.80
2022-10-23T09:38:38.347Z,2.60
2022-10-23T09:41:20.299Z,2.10
2022-10-23T09:43:47.497Z,2.13
2022-10-23T09:46:14.077Z,2.50
2022-10-23T09:48:42.430Z,3.25
2022-10-23T09:51:19.933Z,2.60
2022-10-23T09:53:57.908Z,2.45
2022-10-23T09:56:33.062Z,2.20
2022-10-23T09:59:05.599Z,2.20
2022-10-23T10:01:43.857Z,2.17
2022-10-23T10:04:10.649Z,2.65
2022-10-23T10:06:37.392Z,3.28
2022-10-23T10:09:12.561Z,2.72
2022-10-23T10:11:59.213Z,2.10
2022-10-23T10:15:07.181Z,2.38
2022-10-23T10:17:58.488Z,2.63
2022-10-23T10:20:49.772Z,1.90
2022-10-23T10:23:43.801Z,2.20
2022-10-23T10:29:05.637Z,2.40
2022-10-23T10:32:05.975Z,2.47
2022-10-23T10:34:57.797Z,2.45
2022-10-23T10:38:05.491Z,2.72
2022-10-23T10:40:55.848Z,2.05
2022-10-23T10:44:31.744Z,1.42
2022-10-23T10:47:22.241Z,2.15
2022-10-23T10:50:23.215Z,2.00
2022-10-23T10:53:03.361Z,2.17
2022-10-23T10:55:34.591Z,1.85
2022-10-23T10:58:21.430Z,1.80
2022-10-23T11:00:54.824Z,1.83
2022-10-23T11:03:46.968Z,1.63
2022-10-23T11:06:18.907Z,1.38
2022-10-23T11:09:03.850Z,2.50
2022-10-23T11:11:43.539Z,1.88
2022-10-23T11:14:23.282Z,2.20
2022-10-23T11:16:53.201Z,1.52
2022-10-23T11:19:30.930Z,1.40
2022-10-23T11:22:39.476Z,1.50
2022-10-23T11:25:47.202Z,1.50
2022-10-23T11:28:32.596Z,1.45
2022-10-23T11:31:14.179Z,1.77
2022-10-23T11:34:39.253Z,1.55
2022-10-23T11:37:06.690Z,2.03
2022-10-23T11:39:35.505Z,2.25
2022-10-23T11:44:43.293Z,1.80
2022-10-23T11:47:40.007Z,1.70
2022-10-23T11:50:06.966Z,1.90
2022-10-23T11:52:45.729Z,1.63
2022-10-23T11:55:22.520Z,1.20
2022-10-23T11:58:24.395Z,1.75
2022-10-23T12:01:25.378Z,1.50
2022-10-23T12:04:06.828Z,1.67
2022-10-23T12:06:41.727Z,2.03
2022-10-23T12:09:39.916Z,1.95
2022-10-23T12:12:09.538Z,1.50
2022-10-23T12:14:38.802Z,1.65
2022-10-23T12:17:35.767Z,1.38
2022-10-23T12:20:11.115Z,1.73
2022-10-23T12:22:51.680Z,1.38
2022-10-23T12:25:28.005Z,1.88
2022-10-23T12:28:19.532Z,2.03
2022-10-23T12:31:31.007Z,2.00
2022-10-23T12:34:48.179Z,1.42
2022-10-23T12:37:55.110Z,1.98
2022-10-23T12:40:22.409Z,2.08
2022-10-23T12:42:55.702Z,1.90
2022-10-23T12:45:30.460Z,2.08
2022-10-23T12:47:57.388Z,1.95
2022-10-23T12:50:28.409Z,1.73
2022-10-23T12:52:56.094Z,2.10
2022-10-23T12:55:25.931Z,2.00
2022-10-23T12:57:56.626Z,2.75
2022-10-23T13:00:24.955Z,2.42
2022-10-23T13:03:03.829Z,2.60
2022-10-23T13:05:32.727Z,2.22
2022-10-23T13:08:02.453Z,2.63
2022-10-23T13:10:30.930Z,2.60
2022-10-23T13:13:04.650Z,2.60
2022-10-23T13:15:43.973Z,2.20
2022-10-23T13:18:15.425Z,1.88
2022-10-23T13:20:56.723Z,1.83
2022-10-23T13:23:34.176Z,1.90
2022-10-23T13:26:20.399Z,1.52
2022-10-23T13:28:47.282Z,2.15
2022-10-23T13:31:13.692Z,2.60
2022-10-23T13:33:41.549Z,2.60
2022-10-23T13:36:13.525Z,1.98
2022-10-23T13:39:02.347Z,2.22
2022-10-23T13:41:40.941Z,3.33
2022-10-23T13:44:12.175Z,3.00
2022-10-23T13:46:38.708Z,1.85
2022-10-23T13:49:05.521Z,2.00
2022-10-23T13:51:42.686Z,2.15
2022-10-23T13:54:16.569Z,1.90
2022-10-23T13:56:43.338Z,1.58
2022-10-23T13:59:16.460Z,1.60
2022-10-23T14:01:45.695Z,1.70
2022-10-23T14:04:13.324Z,1.55
2022-10-23T14:06:40.357Z,2.08
2022-10-23T14:09:12.038Z,1.60
2022-10-23T14:11:39.506Z,1.30
2022-10-23T14:14:06.104Z,2.50
2022-10-23T14:16:32.879Z,1.60
2022-10-23T14:18:59.457Z,1.77
2022-10-23T14:21:26.070Z,1.85
2022-10-23T14:23:53.868Z,1.65
2022-10-23T14:26:24.764Z,1.83
2022-10-23T14:28:58.366Z,2.13
2022-10-23T14:31:27.452Z,1.20
2022-10-23T14:33:58.857Z,1.90
2022-10-23T14:36:30.872Z,1.63
2022-10-23T14:39:05.300Z,2.35
2022-10-23T14:41:32.316Z,2.53
2022-10-23T14:43:58.938Z,2.28
2022-10-23T14:46:25.891Z,1.83
2022-10-23T14:48:56.446Z,1.92
2022-10-23T14:51:30.072Z,3.15
2022-10-23T14:54:01.785Z,2.60
2022-10-23T14:56:34.811Z,2.40
2022-10-23T14:59:04.538Z,2.10
2022-10-23T15:01:45.544Z,1.95
2022-10-23T15:04:15.897Z,2.50
2022-10-23T15:06:43.446Z,2.65
2022-10-23T15:09:10.098Z,2.38
2022-10-23T15:11:36.690Z,2.35
2022-10-23T15:14:03.442Z,2.40
2022-10-23T15:16:30.591Z,2.78
2022-10-23T15:18:57.654Z,2.72
2022-10-23T15:21:24.246Z,3.30
2022-10-23T15:23:51.346Z,3.00
2022-10-23T15:26:22.762Z,3.10
2022-10-23T15:28:59.088Z,3.00
2022-10-23T15:31:37.860Z,3.10
2022-10-23T15:34:05.861Z,3.70
2022-10-23T15:36:32.903Z,3.85
2022-10-23T15:39:00.240Z,2.65
2022-10-23T15:41:34.670Z,3.10
2022-10-23T15:44:03.324Z,3.55
2022-10-23T15:46:30.260Z,3.53
2022-10-23T15:48:57.021Z,3.30
2022-10-23T15:51:23.745Z,3.47
2022-10-23T15:53:50.304Z,3.35
2022-10-23T15:56:16.895Z,3.17
2022-10-23T15:58:43.463Z,3.00
2022-10-23T16:01:10.272Z,2.97
2022-10-23T16:03:38.652Z,2.72
2022-10-23T16:06:08.459Z,4.90
2022-10-23T16:08:35.622Z,3.50
2022-10-23T16:11:03.290Z,3.40
2022-10-23T16:13:29.969Z,3.53
2022-10-23T16:15:56.484Z,3.25
2022-10-23T16:18:23.674Z,4.00
2022-10-23T16:20:55.048Z,3.60
2022-10-23T16:23:21.932Z,3.25
2022-10-23T16:25:48.468Z,3.28
2022-10-23T16:28:14.988Z,2.85
2022-10-23T16:30:42.475Z,3.20
2022-10-23T16:33:09.586Z,2.50
2022-10-23T16:35:39.686Z,3.30
2022-10-23T16:38:06.261Z,3.15
2022-10-23T16:40:32.785Z,3.53
2022-10-23T16:42:59.487Z,4.40
2022-10-23T16:45:26.135Z,2.85
2022-10-23T16:47:52.670Z,3.75
2022-10-23T16:50:19.215Z,3.65
2022-10-23T16:52:46.049Z,4.15
2022-10-23T16:55:13.374Z,4.03
2022-10-23T16:57:40.058Z,4.10
2022-10-23T17:00:07.562Z,4.75
2022-10-23T17:02:34.309Z,4.85
2022-10-23T17:05:01.000Z,5.55
2022-10-23T17:07:27.572Z,5.05
2022-10-23T17:09:54.131Z,4.90
2022-10-23T17:12:20.683Z,5.38
2022-10-23T17:14:47.249Z,5.28
2022-10-23T17:17:13.791Z,6.38
2022-10-23T17:19:46.056Z,7.68
2022-10-23T17:22:14.191Z,5.18
2022-10-23T17:24:42.179Z,4.63
2022-10-23T17:27:09.661Z,4.25
2022-10-23T17:29:36.366Z,4.45
2022-10-23T17:32:04.078Z,4.00
2022-10-23T17:34:30.639Z,4.15
2022-10-23T17:36:57.612Z,3.88
2022-10-23T17:39:28.045Z,4.13
2022-10-23T17:41:55.571Z,3.70
2022-10-23T17:44:22.652Z,3.42
2022-10-23T17:46:54.138Z,3.28
2022-10-23T17:49:21.831Z,4.75
2022-10-23T17:51:53.811Z,3.75
2022-10-23T17:54:20.400Z,6.50
2022-10-23T17:56:47.013Z,4.40
2022-10-23T17:59:17.465Z,3.95
2022-10-23T18:01:46.504Z,4.85
2022-10-23T18:04:13.485Z,4.93
2022-10-23T18:06:46.891Z,5.05
2022-10-23T18:09:13.479Z,4.60
2022-10-23T18:11:46.833Z,4.47
2022-10-23T18:14:17.025Z,4.63
2022-10-23T18:16:46.032Z,4.70
2022-10-23T18:19:14.428Z,5.75
2022-10-23T18:21:41.037Z,4.53
2022-10-23T18:24:07.641Z,4.00
2022-10-23T18:26:35.150Z,3.97
2022-10-23T18:29:07.093Z,3.60
2022-10-23T18:31:35.546Z,3.85
2022-10-23T18:34:09.326Z,3.50
2022-10-23T18:36:39.062Z,3.72
2022-10-23T18:39:09.493Z,3.42
2022-10-23T18:41:41.513Z,3.65
2022-10-23T18:44:08.544Z,4.25
2022-10-23T18:46:35.495Z,3.67
2022-10-23T18:49:02.111Z,3.55
2022-10-23T18:51:33.313Z,3.35
2022-10-23T18:54:03.496Z,3.33
2022-10-23T18:56:30.403Z,4.13
2022-10-23T18:59:01.691Z,4.10
2022-10-23T19:01:30.336Z,4.25
2022-10-23T19:03:59.240Z,4.82
2022-10-23T19:06:25.900Z,3.92
2022-10-23T19:08:52.526Z,3.78
2022-10-23T19:11:22.188Z,3.53
2022-10-23T19:13:48.810Z,3.72
2022-10-23T19:16:33.532Z,3.67
2022-10-23T19:19:11.721Z,3.80
2022-10-23T19:21:39.535Z,3.72
2022-10-23T19:24:13.870Z,3.25
2022-10-23T19:26:42.048Z,3.10
2022-10-23T19:29:13.084Z,3.40
2022-10-23T19:31:43.108Z,3.05
2022-10-23T19:34:09.644Z,2.97
2022-10-23T19:36:36.257Z,3.25
2022-10-23T19:39:02.830Z,3.15
2022-10-23T19:41:31.081Z,3.28
2022-10-23T19:43:57.883Z,3.17
2022-10-23T19:46:24.776Z,3.35
2022-10-23T19:48:51.348Z,3.00
2022-10-23T19:51:17.993Z,4.00
2022-10-23T19:53:44.591Z,3.25
2022-10-23T19:56:12.832Z,4.20
2022-10-23T19:58:40.343Z,3.22
2022-10-23T20:01:13.876Z,3.35
2022-10-23T20:03:50.578Z,2.97
2022-10-23T20:06:22.615Z,3.28
2022-10-23T20:08:50.116Z,3.15
2022-10-23T20:11:28.220Z,3.13
2022-10-23T20:13:55.263Z,3.08
2022-10-23T20:16:32.495Z,3.17
2022-10-23T20:19:03.167Z,3.60
2022-10-23T20:21:29.901Z,4.10
2022-10-23T20:23:57.692Z,3.60
2022-10-23T20:26:24.288Z,4.20
2022-10-23T20:28:55.871Z,3.78
2022-10-23T20:31:25.483Z,4.10
2022-10-23T20:33:53.563Z,3.63
2022-10-23T20:36:31.264Z,3.92
2022-10-23T20:39:01.513Z,3.42
2022-10-23T20:41:29.109Z,3.60
2022-10-23T20:43:56.339Z,3.55
2022-10-23T20:46:22.967Z,3.88
2022-10-23T20:48:49.902Z,3.35
2022-10-23T20:51:20.310Z,3.67
2022-10-23T20:53:48.173Z,3.85
2022-10-23T20:56:32.503Z,3.70
2022-10-23T20:59:02.135Z,3.55
2022-10-23T21:01:30.406Z,3.50
2022-10-23T21:03:59.718Z,3.90
2022-10-23T21:06:33.964Z,3.70
2022-10-23T21:09:06.663Z,3.35
2022-10-23T21:11:34.573Z,3.42
2022-10-23T21:14:01.207Z,4.05
2022-10-23T21:16:36.935Z,3.72
2022-10-23T21:19:04.500Z,3.63
2022-10-23T21:21:33.059Z,4.28
2022-10-23T21:24:00.866Z,4.10
2022-10-23T21:26:29.502Z,4.45
2022-10-23T21:29:13.759Z,3.78
2022-10-23T21:31:42.663Z,4.13
2022-10-23T21:37:00.185Z,4.35
2022-10-23T21:39:28.492Z,3.88
2022-10-23T21:41:55.016Z,4.22
2022-10-23T21:44:21.584Z,4.43
2022-10-23T21:46:48.233Z,4.05
2022-10-23T21:49:14.812Z,4.32
2022-10-23T21:51:41.419Z,4.10
2022-10-23T21:54:13.048Z,4.80
2022-10-23T21:56:48.531Z,5.18
2022-10-23T21:59:19.754Z,5.78
2022-10-23T22:01:48.647Z,4.72
2022-10-23T22:04:18.119Z,4.45
2022-10-23T22:06:47.377Z,4.07
2022-10-23T22:09:19.181Z,4.10
2022-10-23T22:11:46.086Z,4.28
2022-10-23T22:14:12.676Z,3.40
2022-10-23T22:16:39.376Z,4.32
2022-10-23T22:19:05.980Z,4.10
2022-10-23T22:21:32.570Z,4.15
2022-10-23T22:24:00.984Z,4.00
2022-10-23T22:26:35.666Z,4.18
2022-10-23T22:29:07.455Z,3.95
2022-10-23T22:31:35.956Z,4.93
2022-10-23T22:34:18.936Z,4.00
2022-10-23T22:36:55.544Z,3.38
2022-10-23T22:39:22.991Z,4.30
2022-10-23T22:41:49.689Z,3.70
2022-10-23T22:44:16.643Z,4.60
2022-10-23T22:46:43.652Z,4.70
2022-10-23T22:49:10.718Z,5.45
2022-10-23T22:51:39.275Z,4.40
2022-10-23T22:54:06.157Z,3.50
2022-10-23T22:56:32.869Z,3.90
2022-10-23T22:58:59.404Z,4.30
2022-10-23T23:01:40.172Z,3.67
2022-10-23T23:04:14.068Z,3.13
2022-10-23T23:06:46.487Z,3.65
2022-10-23T23:09:17.893Z,3.65
2022-10-23T23:11:52.036Z,3.15
2022-10-23T23:14:23.408Z,3.90
2022-10-23T23:16:52.990Z,4.05
2022-10-23T23:19:20.223Z,4.15
2022-10-23T23:21:46.773Z,3.80
2022-10-23T23:24:13.658Z,3.83
2022-10-23T23:26:40.572Z,3.83
2022-10-23T23:29:07.091Z,4.38
2022-10-23T23:31:33.631Z,4.05
2022-10-23T23:34:00.891Z,3.88
2022-10-23T23:36:28.401Z,3.88
2022-10-23T23:38:57.302Z,3.90
2022-10-23T23:41:25.615Z,4.22
2022-10-23T23:43:57.568Z,3.72
2022-10-23T23:46:25.131Z,4.10
2022-10-23T23:48:51.673Z,3.75
2022-10-23T23:51:22.468Z,4.18
2022-10-23T23:53:50.151Z,3.70
2022-10-23T23:56:17.103Z,3.67
2022-10-23T23:58:43.612Z,3.55
